Terminal Aerodrome Forecast
Issued by NWS

Home | Current Version | Previous Version | Text Only | Print | Product List | Glossary On
Versions: 1 2 3 4 5 6 7 8 9 10 11 12
000
FTUS41 KBTV 240531
TAFRUT
TAF
KRUT 240531Z 2406/2506 14009KT P6SM VCSH OVC080
     FM240900 13011G18KT P6SM VCSH OVC060
     FM241300 12013G20KT 5SM -SHRA BR OVC045
     FM241600 12017G27KT 4SM SHRA BR BKN025 OVC040
     FM242100 12012G20KT 6SM BR VCSH OVC025
     FM250300 13008KT 5SM BR VCSH OVC022=

USA.gov is the U.S. government's official web portal to all federal, state and local government web resources and services.